Sligo Airport - TAF
(Terminal Area Forecast)

Issued at 16:21 UTC on Tue. 21-Jan-20

--- METARS(SA) ---

METAR EISG(SLIGO) 211600Z AUTO 26006KT 9999 OVC013 09/09 Q1040 =

--- TAFS() ---

TAF EISG(SLIGO) 211400Z 2115/2124 24005KT 8000 SCT006 BKN013 TEMPO

2115/2124 4000 -DZ BR BKN006 PROB40 TEMPO 2115/2124 2000 BKN003 =

--- SIGMETS(WS) ---

IE - No VALID SIGMETS/Warnings FOR THIS AREA

--- SIGMETS Volcanic(WV) ---

IE - No VALID SIGMETS/Warnings FOR THIS AREA

--- SIGMETS(WS) ---

UK - No VALID SIGMETS/Warnings FOR THIS AREA

Sligo Airport - METARs

Latest METARs for Sligo and Donegal Airports - updated every 30 mins